sensor_id;sensor_type;location;lat;lon;timestamp;noise_LAeq;noise_LA_min;noise_LA_max;noise_LA01;noise_LA95
66274;Laerm;58450;52.150;4.466;2023-04-25T00:01:17;35.45;30.84;45.67;;
66274;Laerm;58450;52.150;4.466;2023-04-25T00:03:44;37.12;31.21;47.29;;
66274;Laerm;58450;52.150;4.466;2023-04-25T00:06:14;35.63;30.82;44.94;;
66274;Laerm;58450;52.150;4.466;2023-04-25T00:08:44;35.74;31.37;42.54;;
66274;Laerm;58450;52.150;4.466;2023-04-25T00:11:12;37.76;30.56;52.28;;
66274;Laerm;58450;52.150;4.466;2023-04-25T00:13:39;38.74;30.98;56.94;;
66274;Laerm;58450;52.150;4.466;2023-04-25T00:16:07;36.52;30.66;53.24;;
66274;Laerm;58450;52.150;4.466;2023-04-25T00:18:35;35.60;30.73;41.81;;
66274;Laerm;58450;52.150;4.466;2023-04-25T00:21:02;36.38;30.33;48.37;;
66274;Laerm;58450;52.150;4.466;2023-04-25T00:23:33;36.84;31.40;45.95;;
66274;Laerm;58450;52.150;4.466;2023-04-25T00:26:02;44.86;31.15;62.67;;
66274;Laerm;58450;52.150;4.466;2023-04-25T00:28:30;35.92;31.05;46.08;;
66274;Laerm;58450;52.150;4.466;2023-04-25T00:30:58;36.13;30.74;42.26;;
66274;Laerm;58450;52.150;4.466;2023-04-25T00:33:25;35.70;30.48;45.25;;
66274;Laerm;58450;52.150;4.466;2023-04-25T00:35:53;42.95;30.95;58.16;;
66274;Laerm;58450;52.150;4.466;2023-04-25T00:38:21;36.79;31.70;45.37;;
66274;Laerm;58450;52.150;4.466;2023-04-25T00:40:49;54.95;34.28;69.42;;
66274;Laerm;58450;52.150;4.466;2023-04-25T00:43:17;37.88;32.27;52.45;;
66274;Laerm;58450;52.150;4.466;2023-04-25T00:45:47;36.41;31.89;43.38;;
66274;Laerm;58450;52.150;4.466;2023-04-25T00:48:17;35.89;30.95;48.89;;
66274;Laerm;58450;52.150;4.466;2023-04-25T00:50:52;35.37;30.92;42.00;;
66274;Laerm;58450;52.150;4.466;2023-04-25T00:53:21;36.48;30.89;51.09;;
66274;Laerm;58450;52.150;4.466;2023-04-25T00:55:50;36.12;30.74;42.44;;
66274;Laerm;58450;52.150;4.466;2023-04-25T00:58:19;38.55;33.19;49.49;;
66274;Laerm;58450;52.150;4.466;2023-04-25T01:00:49;37.36;30.70;47.55;;
66274;Laerm;58450;52.150;4.466;2023-04-25T01:03:18;37.88;30.82;48.89;;
66274;Laerm;58450;52.150;4.466;2023-04-25T01:05:47;36.39;30.67;58.19;;
66274;Laerm;58450;52.150;4.466;2023-04-25T01:08:14;37.15;32.40;49.23;;
66274;Laerm;58450;52.150;4.466;2023-04-25T01:10:42;37.97;33.04;47.04;;
66274;Laerm;58450;52.150;4.466;2023-04-25T01:13:11;37.24;31.95;52.25;;
66274;Laerm;58450;52.150;4.466;2023-04-25T01:15:38;38.77;32.62;46.05;;
66274;Laerm;58450;52.150;4.466;2023-04-25T01:18:06;37.51;32.55;47.53;;
66274;Laerm;58450;52.150;4.466;2023-04-25T01:20:34;39.89;30.64;61.71;;
66274;Laerm;58450;52.150;4.466;2023-04-25T01:23:03;36.97;30.78;47.35;;
66274;Laerm;58450;52.150;4.466;2023-04-25T01:25:30;46.84;32.69;63.68;;
66274;Laerm;58450;52.150;4.466;2023-04-25T01:27:58;41.70;31.22;58.12;;
66274;Laerm;58450;52.150;4.466;2023-04-25T01:30:27;35.54;31.23;42.30;;
66274;Laerm;58450;52.150;4.466;2023-04-25T01:32:56;35.84;31.33;42.06;;
66274;Laerm;58450;52.150;4.466;2023-04-25T01:35:24;46.18;31.29;64.36;;
66274;Laerm;58450;52.150;4.466;2023-04-25T01:37:52;35.62;31.18;43.86;;
66274;Laerm;58450;52.150;4.466;2023-04-25T01:40:21;36.35;31.17;46.70;;
66274;Laerm;58450;52.150;4.466;2023-04-25T01:42:49;35.21;30.41;42.44;;
66274;Laerm;58450;52.150;4.466;2023-04-25T01:45:17;35.72;31.16;42.42;;
66274;Laerm;58450;52.150;4.466;2023-04-25T01:47:45;35.84;30.95;42.10;;
66274;Laerm;58450;52.150;4.466;2023-04-25T01:50:17;35.90;30.48;45.62;;
66274;Laerm;58450;52.150;4.466;2023-04-25T01:52:45;35.12;30.78;42.03;;
66274;Laerm;58450;52.150;4.466;2023-04-25T01:55:12;39.18;30.47;58.41;;
66274;Laerm;58450;52.150;4.466;2023-04-25T01:57:41;38.27;31.63;52.04;;
66274;Laerm;58450;52.150;4.466;2023-04-25T02:00:10;35.68;30.98;42.30;;
66274;Laerm;58450;52.150;4.466;2023-04-25T02:02:38;35.33;30.98;43.17;;
66274;Laerm;58450;52.150;4.466;2023-04-25T02:05:07;36.63;30.81;48.40;;
66274;Laerm;58450;52.150;4.466;2023-04-25T02:07:35;37.58;30.96;46.30;;
66274;Laerm;58450;52.150;4.466;2023-04-25T02:10:03;35.83;30.96;45.91;;
66274;Laerm;58450;52.150;4.466;2023-04-25T02:12:30;37.08;31.87;49.97;;
66274;Laerm;58450;52.150;4.466;2023-04-25T02:14:59;36.96;32.13;50.71;;
66274;Laerm;58450;52.150;4.466;2023-04-25T02:17:27;37.34;31.47;56.55;;
66274;Laerm;58450;52.150;4.466;2023-04-25T02:19:54;37.51;32.39;46.78;;
66274;Laerm;58450;52.150;4.466;2023-04-25T02:22:22;35.96;30.94;44.34;;
66274;Laerm;58450;52.150;4.466;2023-04-25T02:24:49;36.56;30.66;46.41;;
66274;Laerm;58450;52.150;4.466;2023-04-25T02:27:16;48.64;31.55;67.13;;
66274;Laerm;58450;52.150;4.466;2023-04-25T02:29:44;39.88;33.45;53.66;;
66274;Laerm;58450;52.150;4.466;2023-04-25T02:32:13;36.36;31.82;43.25;;
66274;Laerm;58450;52.150;4.466;2023-04-25T02:34:40;42.01;31.88;58.89;;
66274;Laerm;58450;52.150;4.466;2023-04-25T02:37:07;50.80;32.55;73.35;;
66274;Laerm;58450;52.150;4.466;2023-04-25T02:39:35;50.96;32.47;64.42;;
66274;Laerm;58450;52.150;4.466;2023-04-25T02:42:02;45.39;34.54;62.61;;
66274;Laerm;58450;52.150;4.466;2023-04-25T02:44:30;39.29;32.75;57.46;;
66274;Laerm;58450;52.150;4.466;2023-04-25T02:46:58;38.97;31.64;51.41;;
66274;Laerm;58450;52.150;4.466;2023-04-25T02:49:26;36.87;32.57;43.89;;
66274;Laerm;58450;52.150;4.466;2023-04-25T02:51:54;36.79;31.99;42.43;;
66274;Laerm;58450;52.150;4.466;2023-04-25T02:54:21;39.00;33.39;53.36;;
66274;Laerm;58450;52.150;4.466;2023-04-25T02:56:49;37.96;33.50;46.74;;
66274;Laerm;58450;52.150;4.466;2023-04-25T02:59:16;36.94;32.21;47.41;;
66274;Laerm;58450;52.150;4.466;2023-04-25T03:01:44;37.30;31.75;48.17;;
66274;Laerm;58450;52.150;4.466;2023-04-25T03:04:11;40.73;32.34;57.69;;
66274;Laerm;58450;52.150;4.466;2023-04-25T03:06:40;39.33;32.61;61.47;;
66274;Laerm;58450;52.150;4.466;2023-04-25T03:09:07;36.68;31.95;50.01;;
66274;Laerm;58450;52.150;4.466;2023-04-25T03:11:36;37.00;32.06;44.21;;
66274;Laerm;58450;52.150;4.466;2023-04-25T03:14:04;37.58;32.03;45.37;;
66274;Laerm;58450;52.150;4.466;2023-04-25T03:16:31;39.32;34.28;48.39;;
66274;Laerm;58450;52.150;4.466;2023-04-25T03:18:59;39.39;32.85;51.44;;
66274;Laerm;58450;52.150;4.466;2023-04-25T03:21:26;38.15;33.68;48.05;;
66274;Laerm;58450;52.150;4.466;2023-04-25T03:23:55;39.89;32.85;52.68;;
66274;Laerm;58450;52.150;4.466;2023-04-25T03:26:23;39.91;34.58;49.01;;
66274;Laerm;58450;52.150;4.466;2023-04-25T03:28:50;39.98;34.85;49.32;;
66274;Laerm;58450;52.150;4.466;2023-04-25T03:31:17;44.59;35.81;58.55;;
66274;Laerm;58450;52.150;4.466;2023-04-25T03:33:45;45.13;35.54;60.66;;
66274;Laerm;58450;52.150;4.466;2023-04-25T03:36:12;41.09;35.28;51.31;;
66274;Laerm;58450;52.150;4.466;2023-04-25T03:38:40;44.50;35.78;58.79;;
66274;Laerm;58450;52.150;4.466;2023-04-25T03:41:09;41.10;35.40;49.36;;
66274;Laerm;58450;52.150;4.466;2023-04-25T03:43:36;49.30;35.64;63.49;;
66274;Laerm;58450;52.150;4.466;2023-04-25T03:46:04;47.03;37.00;59.93;;
66274;Laerm;58450;52.150;4.466;2023-04-25T03:48:31;40.67;35.67;51.13;;
66274;Laerm;58450;52.150;4.466;2023-04-25T03:50:59;44.69;37.27;56.01;;
66274;Laerm;58450;52.150;4.466;2023-04-25T03:53:26;42.54;36.44;52.23;;
66274;Laerm;58450;52.150;4.466;2023-04-25T03:55:54;45.14;37.44;55.39;;
66274;Laerm;58450;52.150;4.466;2023-04-25T03:58:23;49.43;35.25;62.61;;
66274;Laerm;58450;52.150;4.466;2023-04-25T04:00:51;42.55;37.68;51.47;;
66274;Laerm;58450;52.150;4.466;2023-04-25T04:03:18;46.77;37.38;67.94;;
66274;Laerm;58450;52.150;4.466;2023-04-25T04:05:46;49.32;37.17;69.33;;
66274;Laerm;58450;52.150;4.466;2023-04-25T04:08:14;48.30;37.68;65.07;;
66274;Laerm;58450;52.150;4.466;2023-04-25T04:10:41;45.53;37.85;64.00;;
66274;Laerm;58450;52.150;4.466;2023-04-25T04:13:08;53.76;39.21;72.68;;
66274;Laerm;58450;52.150;4.466;2023-04-25T04:15:37;47.89;39.48;64.86;;
66274;Laerm;58450;52.150;4.466;2023-04-25T04:18:05;48.31;38.27;61.02;;
66274;Laerm;58450;52.150;4.466;2023-04-25T04:20:33;44.26;37.38;61.03;;
66274;Laerm;58450;52.150;4.466;2023-04-25T04:23:00;49.88;37.10;70.18;;
66274;Laerm;58450;52.150;4.466;2023-04-25T04:25:28;44.58;37.78;59.14;;
66274;Laerm;58450;52.150;4.466;2023-04-25T04:27:56;46.50;38.13;57.48;;
66274;Laerm;58450;52.150;4.466;2023-04-25T04:30:25;43.55;38.20;54.59;;
66274;Laerm;58450;52.150;4.466;2023-04-25T04:32:57;50.59;39.00;66.63;;
66274;Laerm;58450;52.150;4.466;2023-04-25T04:35:24;51.48;38.68;69.22;;
66274;Laerm;58450;52.150;4.466;2023-04-25T04:37:52;50.64;41.27;68.27;;
66274;Laerm;58450;52.150;4.466;2023-04-25T04:40:21;49.63;43.37;58.77;;
66274;Laerm;58450;52.150;4.466;2023-04-25T04:42:48;47.15;41.72;60.77;;
66274;Laerm;58450;52.150;4.466;2023-04-25T04:45:16;50.67;41.70;65.01;;
66274;Laerm;58450;52.150;4.466;2023-04-25T04:47:45;52.16;41.58;66.62;;
66274;Laerm;58450;52.150;4.466;2023-04-25T04:50:14;48.67;41.27;65.39;;
66274;Laerm;58450;52.150;4.466;2023-04-25T04:52:42;50.99;43.90;63.35;;
66274;Laerm;58450;52.150;4.466;2023-04-25T04:55:09;48.35;43.18;61.36;;
66274;Laerm;58450;52.150;4.466;2023-04-25T04:57:37;48.54;44.13;56.07;;
66274;Laerm;58450;52.150;4.466;2023-04-25T05:00:07;50.99;44.89;63.73;;
66274;Laerm;58450;52.150;4.466;2023-04-25T05:02:37;52.79;46.06;65.05;;
66274;Laerm;58450;52.150;4.466;2023-04-25T05:05:05;51.17;46.46;63.48;;
66274;Laerm;58450;52.150;4.466;2023-04-25T05:07:35;52.28;46.47;63.20;;
66274;Laerm;58450;52.150;4.466;2023-04-25T05:10:03;52.46;45.94;65.36;;
66274;Laerm;58450;52.150;4.466;2023-04-25T05:12:31;52.49;47.21;62.92;;
66274;Laerm;58450;52.150;4.466;2023-04-25T05:14:58;57.85;46.97;73.11;;
66274;Laerm;58450;52.150;4.466;2023-04-25T05:17:26;53.74;46.83;68.94;;
66274;Laerm;58450;52.150;4.466;2023-04-25T05:19:53;55.14;46.45;67.44;;
66274;Laerm;58450;52.150;4.466;2023-04-25T05:22:22;54.30;46.61;66.93;;
66274;Laerm;58450;52.150;4.466;2023-04-25T05:24:51;56.08;46.83;71.36;;
66274;Laerm;58450;52.150;4.466;2023-04-25T05:27:20;52.90;46.39;64.13;;
66274;Laerm;58450;52.150;4.466;2023-04-25T05:29:47;55.04;47.27;69.74;;
66274;Laerm;58450;52.150;4.466;2023-04-25T05:32:15;56.49;47.13;73.19;;
66274;Laerm;58450;52.150;4.466;2023-04-25T05:34:42;60.18;54.15;67.40;;
66274;Laerm;58450;52.150;4.466;2023-04-25T05:37:10;59.49;53.24;65.77;;
66274;Laerm;58450;52.150;4.466;2023-04-25T05:39:38;61.60;54.65;71.64;;
66274;Laerm;58450;52.150;4.466;2023-04-25T05:42:06;56.78;47.08;67.97;;
66274;Laerm;58450;52.150;4.466;2023-04-25T05:44:34;59.22;46.51;80.09;;
66274;Laerm;58450;52.150;4.466;2023-04-25T05:47:01;59.00;47.00;79.76;;
66274;Laerm;58450;52.150;4.466;2023-04-25T05:49:30;56.36;47.51;71.92;;
66274;Laerm;58450;52.150;4.466;2023-04-25T05:51:58;52.46;45.66;64.42;;
66274;Laerm;58450;52.150;4.466;2023-04-25T05:54:25;52.10;45.45;65.65;;
66274;Laerm;58450;52.150;4.466;2023-04-25T05:56:53;57.13;45.93;70.39;;
66274;Laerm;58450;52.150;4.466;2023-04-25T05:59:22;55.79;49.29;65.73;;
66274;Laerm;58450;52.150;4.466;2023-04-25T06:01:49;53.09;47.99;71.05;;
66274;Laerm;58450;52.150;4.466;2023-04-25T06:04:17;57.22;48.01;74.05;;
66274;Laerm;58450;52.150;4.466;2023-04-25T06:06:45;55.52;49.67;64.34;;
66274;Laerm;58450;52.150;4.466;2023-04-25T06:09:12;54.36;47.90;72.91;;
66274;Laerm;58450;52.150;4.466;2023-04-25T06:11:40;53.83;48.59;67.54;;
66274;Laerm;58450;52.150;4.466;2023-04-25T06:14:07;59.77;47.65;74.68;;
66274;Laerm;58450;52.150;4.466;2023-04-25T06:16:36;60.04;52.90;69.46;;
66274;Laerm;58450;52.150;4.466;2023-04-25T06:19:03;62.10;54.02;76.32;;
66274;Laerm;58450;52.150;4.466;2023-04-25T06:21:31;61.26;54.35;67.94;;
66274;Laerm;58450;52.150;4.466;2023-04-25T06:23:58;57.35;47.13;74.75;;
66274;Laerm;58450;52.150;4.466;2023-04-25T06:26:26;56.08;49.01;65.59;;
66274;Laerm;58450;52.150;4.466;2023-04-25T06:28:53;55.33;49.74;68.44;;
66274;Laerm;58450;52.150;4.466;2023-04-25T06:31:21;53.32;47.98;67.07;;
66274;Laerm;58450;52.150;4.466;2023-04-25T06:33:50;57.71;48.66;72.24;;
66274;Laerm;58450;52.150;4.466;2023-04-25T06:36:20;64.89;49.52;76.47;;
66274;Laerm;58450;52.150;4.466;2023-04-25T06:38:51;57.57;48.53;75.23;;
66274;Laerm;58450;52.150;4.466;2023-04-25T06:41:19;59.35;49.37;70.69;;
66274;Laerm;58450;52.150;4.466;2023-04-25T06:43:46;57.87;47.23;73.49;;
66274;Laerm;58450;52.150;4.466;2023-04-25T06:46:14;62.26;54.64;71.76;;
66274;Laerm;58450;52.150;4.466;2023-04-25T06:48:41;63.26;52.62;70.01;;
66274;Laerm;58450;52.150;4.466;2023-04-25T06:51:10;62.15;53.88;71.20;;
66274;Laerm;58450;52.150;4.466;2023-04-25T06:53:39;54.33;47.97;70.50;;
66274;Laerm;58450;52.150;4.466;2023-04-25T06:56:07;56.42;47.38;66.97;;
66274;Laerm;58450;52.150;4.466;2023-04-25T06:58:34;54.79;48.16;64.23;;
66274;Laerm;58450;52.150;4.466;2023-04-25T07:01:02;53.17;46.33;63.44;;
66274;Laerm;58450;52.150;4.466;2023-04-25T07:03:29;54.48;48.45;73.79;;
66274;Laerm;58450;52.150;4.466;2023-04-25T07:05:57;53.29;46.56;74.10;;
66274;Laerm;58450;52.150;4.466;2023-04-25T07:08:26;53.20;45.24;76.45;;
66274;Laerm;58450;52.150;4.466;2023-04-25T07:10:53;51.73;46.20;66.68;;
66274;Laerm;58450;52.150;4.466;2023-04-25T07:13:21;53.23;46.48;64.06;;
66274;Laerm;58450;52.150;4.466;2023-04-25T07:15:48;51.29;45.65;63.90;;
66274;Laerm;58450;52.150;4.466;2023-04-25T07:18:16;61.02;51.29;69.67;;
66274;Laerm;58450;52.150;4.466;2023-04-25T07:20:43;60.38;53.71;68.73;;
66274;Laerm;58450;52.150;4.466;2023-04-25T07:23:11;61.84;54.66;68.97;;
66274;Laerm;58450;52.150;4.466;2023-04-25T07:25:40;57.62;46.15;74.83;;
66274;Laerm;58450;52.150;4.466;2023-04-25T07:28:07;55.41;47.47;66.36;;
66274;Laerm;58450;52.150;4.466;2023-04-25T07:30:35;53.71;48.63;61.28;;
66274;Laerm;58450;52.150;4.466;2023-04-25T07:33:03;54.16;47.87;69.75;;
66274;Laerm;58450;52.150;4.466;2023-04-25T07:35:30;54.17;48.86;68.83;;
66274;Laerm;58450;52.150;4.466;2023-04-25T07:37:58;52.73;47.23;63.88;;
66274;Laerm;58450;52.150;4.466;2023-04-25T07:40:25;52.20;47.05;68.14;;
66274;Laerm;58450;52.150;4.466;2023-04-25T07:42:54;53.19;46.10;65.36;;
66274;Laerm;58450;52.150;4.466;2023-04-25T07:45:22;55.50;47.04;68.42;;
66274;Laerm;58450;52.150;4.466;2023-04-25T07:47:49;52.90;46.52;62.87;;
66274;Laerm;58450;52.150;4.466;2023-04-25T07:50:17;55.88;47.11;76.18;;
66274;Laerm;58450;52.150;4.466;2023-04-25T07:52:44;54.43;46.86;66.59;;
66274;Laerm;58450;52.150;4.466;2023-04-25T07:55:12;52.96;47.03;65.79;;
66274;Laerm;58450;52.150;4.466;2023-04-25T07:57:39;53.41;47.62;67.81;;
66274;Laerm;58450;52.150;4.466;2023-04-25T08:00:10;52.36;46.20;65.12;;
66274;Laerm;58450;52.150;4.466;2023-04-25T08:02:38;54.54;46.11;69.67;;
66274;Laerm;58450;52.150;4.466;2023-04-25T08:05:06;53.60;46.49;66.63;;
66274;Laerm;58450;52.150;4.466;2023-04-25T08:07:34;54.50;46.53;73.60;;
66274;Laerm;58450;52.150;4.466;2023-04-25T08:10:02;57.38;50.24;75.26;;
66274;Laerm;58450;52.150;4.466;2023-04-25T08:12:29;55.90;49.57;73.73;;
66274;Laerm;58450;52.150;4.466;2023-04-25T08:14:57;55.45;49.69;63.30;;
66274;Laerm;58450;52.150;4.466;2023-04-25T08:17:26;58.29;48.43;71.51;;
66274;Laerm;58450;52.150;4.466;2023-04-25T08:19:53;57.41;48.21;75.35;;
66274;Laerm;58450;52.150;4.466;2023-04-25T08:22:21;56.88;47.54;72.57;;
66274;Laerm;58450;52.150;4.466;2023-04-25T08:24:49;61.00;54.96;74.29;;
66274;Laerm;58450;52.150;4.466;2023-04-25T08:27:17;62.89;53.90;75.45;;
66274;Laerm;58450;52.150;4.466;2023-04-25T08:29:44;62.92;52.90;73.54;;
66274;Laerm;58450;52.150;4.466;2023-04-25T08:32:12;57.93;48.75;70.26;;
66274;Laerm;58450;52.150;4.466;2023-04-25T08:34:41;54.39;48.09;72.88;;
66274;Laerm;58450;52.150;4.466;2023-04-25T08:37:10;59.45;50.37;76.55;;
66274;Laerm;58450;52.150;4.466;2023-04-25T08:39:37;58.32;51.54;71.68;;
66274;Laerm;58450;52.150;4.466;2023-04-25T08:42:06;56.04;48.52;69.87;;
66274;Laerm;58450;52.150;4.466;2023-04-25T08:44:34;60.36;51.30;71.09;;
66274;Laerm;58450;52.150;4.466;2023-04-25T08:47:03;58.77;50.63;78.60;;
66274;Laerm;58450;52.150;4.466;2023-04-25T08:49:32;55.87;48.07;71.79;;
66274;Laerm;58450;52.150;4.466;2023-04-25T08:52:03;59.64;49.45;78.76;;
66274;Laerm;58450;52.150;4.466;2023-04-25T08:54:32;59.26;49.64;78.51;;
66274;Laerm;58450;52.150;4.466;2023-04-25T08:57:02;61.58;50.69;77.04;;
66274;Laerm;58450;52.150;4.466;2023-04-25T08:59:31;62.05;54.67;81.00;;
66274;Laerm;58450;52.150;4.466;2023-04-25T09:02:00;61.69;54.57;78.17;;
66274;Laerm;58450;52.150;4.466;2023-04-25T09:04:30;62.54;49.73;77.76;;
66274;Laerm;58450;52.150;4.466;2023-04-25T09:06:57;55.59;49.85;70.07;;
66274;Laerm;58450;52.150;4.466;2023-04-25T09:09:26;54.98;48.67;65.57;;
66274;Laerm;58450;52.150;4.466;2023-04-25T09:11:54;54.72;49.87;67.26;;
66274;Laerm;58450;52.150;4.466;2023-04-25T09:14:23;57.06;47.21;67.71;;
66274;Laerm;58450;52.150;4.466;2023-04-25T09:17:00;57.38;47.28;77.67;;
66274;Laerm;58450;52.150;4.466;2023-04-25T09:19:31;58.00;46.54;77.66;;
66274;Laerm;58450;52.150;4.466;2023-04-25T09:22:01;54.55;44.73;74.67;;
66274;Laerm;58450;52.150;4.466;2023-04-25T09:24:36;56.06;46.63;73.82;;
66274;Laerm;58450;52.150;4.466;2023-04-25T09:27:05;57.69;45.15;76.47;;
66274;Laerm;58450;52.150;4.466;2023-04-25T09:29:35;51.57;45.42;66.43;;
66274;Laerm;58450;52.150;4.466;2023-04-25T09:32:17;52.78;45.40;66.71;;
66274;Laerm;58450;52.150;4.466;2023-04-25T09:34:48;54.69;47.14;75.75;;
66274;Laerm;58450;52.150;4.466;2023-04-25T09:37:21;55.03;46.32;74.77;;
66274;Laerm;58450;52.150;4.466;2023-04-25T09:39:53;52.66;46.84;66.96;;
66274;Laerm;58450;52.150;4.466;2023-04-25T09:42:22;51.34;45.82;66.31;;
66274;Laerm;58450;52.150;4.466;2023-04-25T09:44:53;61.81;47.42;69.93;;
66274;Laerm;58450;52.150;4.466;2023-04-25T09:47:23;64.09;56.22;70.64;;
66274;Laerm;58450;52.150;4.466;2023-04-25T09:49:54;62.77;52.69;71.87;;
66274;Laerm;58450;52.150;4.466;2023-04-25T09:52:24;60.58;49.06;72.21;;
66274;Laerm;58450;52.150;4.466;2023-04-25T09:54:53;61.15;49.91;71.11;;
66274;Laerm;58450;52.150;4.466;2023-04-25T09:57:23;56.79;50.39;78.56;;
66274;Laerm;58450;52.150;4.466;2023-04-25T09:59:53;59.71;48.86;75.96;;
66274;Laerm;58450;52.150;4.466;2023-04-25T10:02:25;59.30;50.39;70.31;;
66274;Laerm;58450;52.150;4.466;2023-04-25T10:04:54;55.75;49.51;65.90;;
66274;Laerm;58450;52.150;4.466;2023-04-25T10:07:25;55.99;49.91;65.39;;
66274;Laerm;58450;52.150;4.466;2023-04-25T10:10:00;56.00;47.47;69.17;;
66274;Laerm;58450;52.150;4.466;2023-04-25T10:12:29;58.22;47.47;72.81;;
66274;Laerm;58450;52.150;4.466;2023-04-25T10:14:58;74.37;54.45;91.28;;
66274;Laerm;58450;52.150;4.466;2023-04-25T10:17:26;77.58;59.76;92.41;;
66274;Laerm;58450;52.150;4.466;2023-04-25T10:19:54;77.32;57.44;91.89;;
66274;Laerm;58450;52.150;4.466;2023-04-25T10:22:31;73.14;50.03;91.30;;
66274;Laerm;58450;52.150;4.466;2023-04-25T10:25:02;68.51;50.43;85.22;;
66274;Laerm;58450;52.150;4.466;2023-04-25T10:27:30;55.47;49.15;73.31;;
66274;Laerm;58450;52.150;4.466;2023-04-25T10:30:02;53.76;47.75;62.53;;
66274;Laerm;58450;52.150;4.466;2023-04-25T10:32:30;58.24;52.86;66.97;;
66274;Laerm;58450;52.150;4.466;2023-04-25T10:35:11;56.04;49.05;76.44;;
66274;Laerm;58450;52.150;4.466;2023-04-25T10:37:57;55.70;48.72;68.41;;
66274;Laerm;58450;52.150;4.466;2023-04-25T10:40:27;53.86;46.18;65.06;;
66274;Laerm;58450;52.150;4.466;2023-04-25T10:42:55;56.32;47.57;69.43;;
66274;Laerm;58450;52.150;4.466;2023-04-25T10:45:22;54.00;47.83;67.71;;
66274;Laerm;58450;52.150;4.466;2023-04-25T10:47:50;54.22;47.61;64.62;;
66274;Laerm;58450;52.150;4.466;2023-04-25T10:50:17;54.74;47.29;68.52;;
66274;Laerm;58450;52.150;4.466;2023-04-25T10:52:45;56.93;46.23;73.77;;
66274;Laerm;58450;52.150;4.466;2023-04-25T10:55:12;56.10;47.97;67.45;;
66274;Laerm;58450;52.150;4.466;2023-04-25T10:57:44;53.16;46.83;66.78;;
66274;Laerm;58450;52.150;4.466;2023-04-25T11:00:15;53.21;45.57;70.33;;
66274;Laerm;58450;52.150;4.466;2023-04-25T11:02:48;54.60;47.36;73.05;;
66274;Laerm;58450;52.150;4.466;2023-04-25T11:05:23;53.60;46.68;71.35;;
66274;Laerm;58450;52.150;4.466;2023-04-25T11:07:56;56.95;48.55;78.38;;
66274;Laerm;58450;52.150;4.466;2023-04-25T11:10:26;57.70;47.97;68.42;;
66274;Laerm;58450;52.150;4.466;2023-04-25T11:12:55;62.77;53.98;72.53;;
66274;Laerm;58450;52.150;4.466;2023-04-25T11:15:23;64.18;55.48;74.49;;
66274;Laerm;58450;52.150;4.466;2023-04-25T11:17:51;63.69;54.23;81.44;;
66274;Laerm;58450;52.150;4.466;2023-04-25T11:20:20;70.03;50.16;88.13;;
66274;Laerm;58450;52.150;4.466;2023-04-25T11:22:48;75.93;56.99;93.52;;
66274;Laerm;58450;52.150;4.466;2023-04-25T11:25:16;73.58;52.76;94.05;;
66274;Laerm;58450;52.150;4.466;2023-04-25T11:27:50;69.82;50.73;85.46;;
66274;Laerm;58450;52.150;4.466;2023-04-25T11:30:21;57.67;50.44;70.76;;
66274;Laerm;58450;52.150;4.466;2023-04-25T11:32:49;57.95;48.97;83.73;;
66274;Laerm;58450;52.150;4.466;2023-04-25T11:35:19;67.08;48.46;85.84;;
66274;Laerm;58450;52.150;4.466;2023-04-25T11:37:49;75.84;51.77;90.13;;
66274;Laerm;58450;52.150;4.466;2023-04-25T11:40:16;68.32;55.59;85.71;;
66274;Laerm;58450;52.150;4.466;2023-04-25T11:42:46;62.00;53.93;70.75;;
66274;Laerm;58450;52.150;4.466;2023-04-25T11:45:14;67.76;54.81;85.16;;
66274;Laerm;58450;52.150;4.466;2023-04-25T11:47:43;59.94;48.19;75.38;;
66274;Laerm;58450;52.150;4.466;2023-04-25T11:50:11;60.47;50.22;84.61;;
66274;Laerm;58450;52.150;4.466;2023-04-25T11:52:42;67.22;52.39;89.56;;
66274;Laerm;58450;52.150;4.466;2023-04-25T11:55:13;75.49;53.38;87.25;;
66274;Laerm;58450;52.150;4.466;2023-04-25T11:57:43;71.64;52.62;85.42;;
66274;Laerm;58450;52.150;4.466;2023-04-25T12:00:13;61.38;51.53;78.00;;
66274;Laerm;58450;52.150;4.466;2023-04-25T12:02:44;57.80;50.91;69.36;;
66274;Laerm;58450;52.150;4.466;2023-04-25T12:05:14;57.51;50.95;81.32;;
66274;Laerm;58450;52.150;4.466;2023-04-25T12:07:42;68.69;50.45;86.06;;
66274;Laerm;58450;52.150;4.466;2023-04-25T12:10:13;76.07;55.59;89.94;;
66274;Laerm;58450;52.150;4.466;2023-04-25T12:12:42;72.40;55.20;88.95;;
66274;Laerm;58450;52.150;4.466;2023-04-25T12:15:13;69.34;54.41;85.79;;
66274;Laerm;58450;52.150;4.466;2023-04-25T12:17:47;58.58;48.79;71.61;;
66274;Laerm;58450;52.150;4.466;2023-04-25T12:20:17;56.27;48.79;66.98;;
66274;Laerm;58450;52.150;4.466;2023-04-25T12:22:47;58.65;49.84;70.58;;
66274;Laerm;58450;52.150;4.466;2023-04-25T12:25:37;56.62;48.34;72.84;;
66274;Laerm;58450;52.150;4.466;2023-04-25T12:28:13;56.12;46.43;74.91;;
66274;Laerm;58450;52.150;4.466;2023-04-25T12:30:57;59.95;49.08;88.57;;
66274;Laerm;58450;52.150;4.466;2023-04-25T12:33:28;75.58;52.62;92.41;;
66274;Laerm;58450;52.150;4.466;2023-04-25T12:35:57;75.74;56.99;88.22;;
66274;Laerm;58450;52.150;4.466;2023-04-25T12:38:26;71.63;47.74;88.03;;
66274;Laerm;58450;52.150;4.466;2023-04-25T12:40:54;65.26;49.75;85.85;;
66274;Laerm;58450;52.150;4.466;2023-04-25T12:43:22;58.87;47.86;73.51;;
66274;Laerm;58450;52.150;4.466;2023-04-25T12:45:50;58.45;47.89;82.15;;
66274;Laerm;58450;52.150;4.466;2023-04-25T12:48:18;75.06;52.78;93.30;;
66274;Laerm;58450;52.150;4.466;2023-04-25T12:50:49;74.69;57.50;91.34;;
66274;Laerm;58450;52.150;4.466;2023-04-25T12:53:19;69.62;54.41;86.07;;
66274;Laerm;58450;52.150;4.466;2023-04-25T12:55:47;61.07;50.09;80.64;;
66274;Laerm;58450;52.150;4.466;2023-04-25T12:58:17;58.43;51.68;68.97;;
66274;Laerm;58450;52.150;4.466;2023-04-25T13:00:45;60.02;52.83;73.32;;
66274;Laerm;58450;52.150;4.466;2023-04-25T13:03:13;61.53;52.25;77.18;;
66274;Laerm;58450;52.150;4.466;2023-04-25T13:05:43;57.82;51.76;69.05;;
66274;Laerm;58450;52.150;4.466;2023-04-25T13:08:12;56.77;50.23;69.65;;
66274;Laerm;58450;52.150;4.466;2023-04-25T13:10:39;54.05;49.23;73.63;;
66274;Laerm;58450;52.150;4.466;2023-04-25T13:13:07;56.09;47.48;66.08;;
66274;Laerm;58450;52.150;4.466;2023-04-25T13:15:34;53.66;47.03;68.15;;
66274;Laerm;58450;52.150;4.466;2023-04-25T13:18:03;56.04;48.43;67.07;;
66274;Laerm;58450;52.150;4.466;2023-04-25T13:20:30;53.58;47.95;64.80;;
66274;Laerm;58450;52.150;4.466;2023-04-25T13:22:58;54.78;48.16;68.42;;
66274;Laerm;58450;52.150;4.466;2023-04-25T13:25:27;55.67;47.16;67.99;;
66274;Laerm;58450;52.150;4.466;2023-04-25T13:27:54;56.83;48.28;69.13;;
66274;Laerm;58450;52.150;4.466;2023-04-25T13:30:22;54.91;48.77;65.12;;
66274;Laerm;58450;52.150;4.466;2023-04-25T13:32:49;60.58;49.61;79.98;;
66274;Laerm;58450;52.150;4.466;2023-04-25T13:35:17;53.84;48.42;65.55;;
66274;Laerm;58450;52.150;4.466;2023-04-25T13:37:44;59.19;49.78;79.06;;
66274;Laerm;58450;52.150;4.466;2023-04-25T13:40:12;57.97;49.64;70.92;;
66274;Laerm;58450;52.150;4.466;2023-04-25T13:42:41;63.14;49.99;78.05;;
66274;Laerm;58450;52.150;4.466;2023-04-25T13:45:10;59.38;49.33;76.55;;
66274;Laerm;58450;52.150;4.466;2023-04-25T13:47:38;56.88;47.73;69.01;;
66274;Laerm;58450;52.150;4.466;2023-04-25T13:50:07;55.62;46.99;77.59;;
66274;Laerm;58450;52.150;4.466;2023-04-25T13:52:35;58.31;46.28;72.34;;